Time;durP1;ratioP1;P1;durP2;ratioP2;P2;SDS_P1;SDS_P2;PMS_P1;PMS_P2;Temp;Humidity;BMP_temperature;BMP_pressure;BME280_temperature;BME280_humidity;BME280_pressure;Samples;Min_cycle;Max_cycle;Signal;HPM_P1;HPM_P2
2022/06/17 00:01:10;;;;;;;2.87;2.57;;;15.60;82.10;;;;;;5009205;28;20472;-55
2022/06/17 00:03:37;;;;;;;3.07;2.30;;;15.50;81.90;;;;;;5007002;28;20484;-55
2022/06/17 00:06:06;;;;;;;3.00;2.63;;;15.30;82.50;;;;;;5017390;28;20488;-55
2022/06/17 00:08:37;;;;;;;5.60;2.67;;;15.40;81.70;;;;;;5009492;28;20515;-56
2022/06/17 00:11:04;;;;;;;4.20;2.63;;;15.40;81.40;;;;;;5008402;28;21054;-56
2022/06/17 00:13:31;;;;;;;4.67;2.30;;;15.40;81.90;;;;;;5004457;28;20484;-56
2022/06/17 00:15:58;;;;;;;2.80;2.30;;;15.40;82.40;;;;;;4994624;28;20506;-55
2022/06/17 00:18:25;;;;;;;6.20;2.83;;;15.30;83.10;;;;;;5017583;28;20481;-56
2022/06/17 00:20:52;;;;;;;2.50;2.23;;;15.20;83.30;;;;;;5006792;28;20860;-56
2022/06/17 00:23:24;;;;;;;2.50;2.23;;;15.10;83.70;;;;;;5009485;28;20477;-55
2022/06/17 00:25:51;;;;;;;4.70;2.23;;;15.00;83.70;;;;;;5006964;28;20608;-55
2022/06/17 00:28:20;;;;;;;2.80;1.80;;;14.90;83.70;;;;;;5007360;28;20469;-55
2022/06/17 00:30:48;;;;;;;3.17;2.87;;;14.80;84.60;;;;;;5000674;28;20485;-55
2022/06/17 00:33:16;;;;;;;2.57;2.37;;;14.80;85.90;;;;;;5006657;28;20840;-55
2022/06/17 00:35:46;;;;;;;2.50;2.30;;;14.70;85.60;;;;;;5001243;28;20481;-56
2022/06/17 00:38:15;;;;;;;3.20;2.27;;;14.90;84.50;;;;;;5021320;28;20496;-56
2022/06/17 00:40:44;;;;;;;3.53;2.27;;;14.90;84.80;;;;;;4998887;28;20485;-56
2022/06/17 00:43:21;;;;;;;3.13;2.23;;;15.00;84.20;;;;;;5022898;28;20496;-56
2022/06/17 00:45:53;;;;;;;3.30;2.27;;;15.00;84.50;;;;;;5009127;28;20495;-56
2022/06/17 00:48:26;;;;;;;2.50;2.20;;;15.10;84.00;;;;;;5004836;28;21408;-56
2022/06/17 00:50:57;;;;;;;2.77;2.40;;;15.10;84.50;;;;;;5002250;28;20480;-56
2022/06/17 00:53:28;;;;;;;2.50;2.30;;;15.00;85.30;;;;;;5004952;28;20831;-55
2022/06/17 00:56:00;;;;;;;5.07;2.33;;;14.80;85.40;;;;;;5002589;28;20484;-55
2022/06/17 00:58:31;;;;;;;2.63;2.43;;;14.70;86.40;;;;;;5017974;28;20488;-55
2022/06/17 01:01:02;;;;;;;2.63;2.20;;;14.70;86.00;;;;;;5003844;28;20495;-55
2022/06/17 01:03:34;;;;;;;5.73;2.60;;;14.70;85.80;;;;;;5004208;28;20483;-56
2022/06/17 01:06:05;;;;;;;3.27;2.37;;;14.70;85.60;;;;;;5006188;28;21201;-56
2022/06/17 01:11:26;;;;;;;3.00;2.00;;;14.80;85.20;;;;;;5009562;28;20508;-56
2022/06/17 01:13:53;;;;;;;6.03;2.83;;;14.90;85.10;;;;;;5004470;28;20500;-56
2022/06/17 01:16:24;;;;;;;3.07;2.40;;;14.90;85.70;;;;;;5009844;28;20490;-56
2022/06/17 01:18:52;;;;;;;2.47;2.10;;;14.80;86.50;;;;;;5007805;28;21083;-56
2022/06/17 01:21:26;;;;;;;4.00;2.50;;;14.70;87.20;;;;;;5013989;28;21057;-55
2022/06/17 01:23:55;;;;;;;3.23;2.93;;;14.40;88.50;;;;;;5006995;28;20508;-55
2022/06/17 01:26:22;;;;;;;2.63;2.10;;;14.40;88.40;;;;;;5004737;28;20476;-56
2022/06/17 01:28:49;;;;;;;6.30;2.30;;;14.40;88.00;;;;;;5005384;28;20492;-55
2022/06/17 01:31:15;;;;;;;9.83;2.63;;;14.50;87.90;;;;;;5010970;28;20481;-55
2022/06/17 01:33:44;;;;;;;3.70;3.20;;;14.50;88.50;;;;;;5012504;28;21033;-55
2022/06/17 01:36:16;;;;;;;2.40;1.83;;;14.50;87.90;;;;;;5009289;28;20483;-55
2022/06/17 01:38:45;;;;;;;3.63;2.53;;;14.60;87.80;;;;;;5015492;28;20477;-55
2022/06/17 01:41:14;;;;;;;7.33;3.80;;;14.80;88.00;;;;;;5014926;28;20496;-55
2022/06/17 01:43:46;;;;;;;4.40;2.53;;;14.80;87.40;;;;;;5010348;28;20480;-55
2022/06/17 01:46:17;;;;;;;3.90;2.87;;;14.90;86.70;;;;;;5011636;28;20483;-55
2022/06/17 01:48:51;;;;;;;4.97;2.80;;;15.00;86.70;;;;;;5018782;28;20549;-56
2022/06/17 01:51:21;;;;;;;5.90;2.60;;;14.90;87.10;;;;;;5017379;28;20503;-56
2022/06/17 01:53:51;;;;;;;2.70;2.50;;;14.90;86.00;;;;;;5012839;28;20480;-56
2022/06/17 01:56:21;;;;;;;6.10;2.43;;;14.80;86.40;;;;;;5020017;28;20480;-56
2022/06/17 01:58:53;;;;;;;2.70;2.37;;;14.70;87.20;;;;;;5018591;28;20882;-56
2022/06/17 02:01:22;;;;;;;14.90;3.03;;;14.40;88.40;;;;;;5021906;28;20483;-55
2022/06/17 02:03:53;;;;;;;2.63;2.10;;;14.30;89.10;;;;;;5018407;28;20481;-56
2022/06/17 02:06:22;;;;;;;3.20;2.57;;;;;;;;;;5022245;28;20968;-55
2022/06/17 02:08:51;;;;;;;3.80;3.07;;;14.00;90.20;;;;;;5031945;28;20515;-54
2022/06/17 02:11:20;;;;;;;2.63;2.40;;;14.00;90.00;;;;;;5022643;28;20578;-55
2022/06/17 02:13:47;;;;;;;4.67;2.87;;;14.10;89.80;;;;;;5020299;28;20487;-55
2022/06/17 02:16:14;;;;;;;2.80;2.60;;;14.20;89.30;;;;;;5020713;28;21014;-55
2022/06/17 02:18:43;;;;;;;3.20;2.90;;;14.20;89.30;;;;;;5016197;28;21092;-55
2022/06/17 02:21:13;;;;;;;3.37;2.80;;;14.20;88.90;;;;;;5013927;28;20847;-54
2022/06/17 02:23:40;;;;;;;4.93;3.90;;;14.20;88.80;;;;;;5014024;28;20494;-56
2022/06/17 02:26:08;;;;;;;4.30;2.50;;;14.30;88.50;;;;;;5029545;28;20479;-54
2022/06/17 02:28:36;;;;;;;3.27;2.97;;;14.30;89.00;;;;;;5021167;28;20474;-53
2022/06/17 02:31:04;;;;;;;2.67;2.47;;;14.40;89.00;;;;;;5020060;28;20533;-54
2022/06/17 02:33:32;;;;;;;3.30;2.90;;;14.40;88.40;;;;;;5021442;28;20974;-55
2022/06/17 02:36:04;;;;;;;3.40;2.83;;;14.40;88.10;;;;;;5021869;28;20492;-53
2022/06/17 02:38:33;;;;;;;5.60;3.00;;;14.50;88.40;;;;;;5018625;28;20489;-53
2022/06/17 02:41:05;;;;;;;4.03;2.93;;;14.40;88.40;;;;;;5011887;28;20825;-54
2022/06/17 02:43:39;;;;;;;3.47;3.17;;;14.30;89.20;;;;;;5014108;28;20492;-54
2022/06/17 02:46:11;;;;;;;3.67;2.70;;;14.20;89.50;;;;;;5019648;28;20482;-54
2022/06/17 02:48:43;;;;;;;6.07;3.37;;;14.20;88.90;;;;;;5020055;28;20883;-54
2022/06/17 02:51:13;;;;;;;3.13;2.83;;;14.20;88.80;;;;;;5009252;28;20465;-55
2022/06/17 02:53:41;;;;;;;3.90;3.60;;;14.10;89.90;;;;;;5016624;28;20548;-54
2022/06/17 02:56:13;;;;;;;2.83;2.47;;;14.10;89.60;;;;;;5021772;28;20533;-54
2022/06/17 02:58:51;;;;;;;4.40;4.00;;;14.10;89.50;;;;;;5011870;28;20487;-55
2022/06/17 03:01:20;;;;;;;3.27;2.80;;;14.00;90.00;;;;;;5002192;28;20495;-55
2022/06/17 03:03:48;;;;;;;3.57;3.27;;;14.10;90.20;;;;;;5021546;28;20491;-55
2022/06/17 03:06:19;;;;;;;3.33;2.43;;;14.10;89.80;;;;;;5015992;28;20964;-55
2022/06/17 03:08:49;;;;;;;3.90;3.00;;;14.10;90.20;;;;;;5025462;28;20591;-55
2022/06/17 03:11:16;;;;;;;3.80;2.40;;;14.20;90.20;;;;;;5019137;28;20924;-55
2022/06/17 03:13:48;;;;;;;5.30;3.50;;;14.30;89.00;;;;;;5014731;28;22236;-55
2022/06/17 03:16:16;;;;;;;3.60;2.93;;;14.30;88.10;;;;;;5025469;28;20519;-55
2022/06/17 03:18:45;;;;;;;3.60;3.30;;;14.30;89.30;;;;;;5022482;28;20483;-55
2022/06/17 03:21:11;;;;;;;12.70;3.70;;;14.10;90.00;;;;;;5019330;28;20485;-55
2022/06/17 03:23:46;;;;;;;6.60;3.70;;;14.20;90.10;;;;;;5020440;28;20873;-55
2022/06/17 03:26:17;;;;;;;3.60;3.03;;;14.20;89.70;;;;;;5020916;28;20487;-55
2022/06/17 03:28:49;;;;;;;7.10;4.00;;;14.30;89.40;;;;;;5019504;28;20476;-55
2022/06/17 03:31:20;;;;;;;2.87;2.67;;;14.30;88.30;;;;;;5025564;28;20952;-55
2022/06/17 03:33:51;;;;;;;3.47;3.17;;;14.30;89.60;;;;;;5019945;28;20472;-55
2022/06/17 03:36:24;;;;;;;3.57;3.27;;;14.20;90.00;;;;;;5015988;28;20476;-54
2022/06/17 03:38:55;;;;;;;3.37;2.67;;;14.10;90.20;;;;;;5015063;28;20494;-54
2022/06/17 03:41:27;;;;;;;3.93;2.37;;;14.00;90.50;;;;;;5022108;28;21093;-54
2022/06/17 03:44:02;;;;;;;3.60;2.73;;;14.10;90.40;;;;;;5019645;28;20475;-54
2022/06/17 03:46:34;;;;;;;4.20;3.50;;;14.10;90.40;;;;;;5007622;28;20969;-55
2022/06/17 03:49:05;;;;;;;3.40;3.07;;;14.00;90.20;;;;;;5004786;28;21027;-54
2022/06/17 03:51:34;;;;;;;6.43;3.43;;;13.90;90.50;;;;;;5009198;28;20985;-55
2022/06/17 03:54:01;;;;;;;3.60;3.00;;;13.90;90.30;;;;;;5006573;28;20840;-55
2022/06/17 03:56:31;;;;;;;3.70;3.40;;;13.90;90.00;;;;;;5014482;28;20476;-55
2022/06/17 03:59:03;;;;;;;4.80;2.73;;;14.00;90.20;;;;;;5017161;28;20833;-55
2022/06/17 04:01:35;;;;;;;4.13;3.73;;;14.00;90.30;;;;;;4996775;28;21025;-55
2022/06/17 04:04:07;;;;;;;5.43;2.93;;;14.10;90.40;;;;;;4996835;28;20460;-55
2022/06/17 04:06:38;;;;;;;7.07;3.73;;;14.10;90.70;;;;;;5017421;28;20488;-55
2022/06/17 04:09:15;;;;;;;4.07;3.63;;;14.20;90.20;;;;;;5004424;28;21001;-55
2022/06/17 04:11:45;;;;;;;4.40;3.80;;;14.20;90.10;;;;;;5019975;28;20534;-55
2022/06/17 04:14:19;;;;;;;5.20;2.90;;;14.10;90.30;;;;;;5019514;28;20472;-55
2022/06/17 04:16:52;;;;;;;4.97;3.60;;;14.00;90.60;;;;;;5017465;28;20925;-55
2022/06/17 04:19:22;;;;;;;3.27;2.97;;;14.00;90.70;;;;;;5019546;28;20503;-54
2022/06/17 04:21:49;;;;;;;3.03;2.73;;;;;;;;;;5014628;28;21027;-55
2022/06/17 04:24:19;;;;;;;3.40;3.07;;;13.90;91.00;;;;;;5021181;28;20566;-54
2022/06/17 04:26:48;;;;;;;4.50;4.10;;;13.90;91.20;;;;;;5016474;28;20592;-55
2022/06/17 04:29:19;;;;;;;3.73;3.30;;;14.00;91.30;;;;;;5017311;28;20477;-54
2022/06/17 04:31:51;;;;;;;4.27;3.87;;;14.00;91.70;;;;;;5018468;28;20499;-54
2022/06/17 04:34:19;;;;;;;4.37;3.07;;;14.20;91.30;;;;;;5019302;28;20485;-54
2022/06/17 04:36:50;;;;;;;8.23;4.17;;;14.50;92.10;;;;;;5016802;28;20587;-54
2022/06/17 04:39:24;;;;;;;5.07;3.03;;;14.50;92.30;;;;;;5018640;28;20946;-55
2022/06/17 04:41:55;;;;;;;4.17;3.77;;;14.60;91.70;;;;;;5018457;28;20492;-55
2022/06/17 04:44:23;;;;;;;4.10;3.77;;;14.80;92.20;;;;;;5017917;28;20497;-56
2022/06/17 04:46:55;;;;;;;3.87;3.57;;;14.80;91.50;;;;;;5007270;28;20489;-54
2022/06/17 04:49:25;;;;;;;5.13;3.40;;;15.20;91.80;;;;;;5030122;28;20492;-55
2022/06/17 04:52:01;;;;;;;5.30;3.97;;;15.50;91.50;;;;;;5013064;28;20607;-55
2022/06/17 04:54:29;;;;;;;11.77;4.17;;;15.70;91.50;;;;;;5018016;28;20479;-55
2022/06/17 04:56:58;;;;;;;4.50;4.10;;;15.70;91.80;;;;;;5008292;28;20515;-55
2022/06/17 04:59:32;;;;;;;5.13;3.70;;;16.10;91.50;;;;;;5030023;28;20736;-54
2022/06/17 05:01:59;;;;;;;3.60;3.30;;;16.30;91.40;;;;;;5018171;28;20485;-54
2022/06/17 05:04:27;;;;;;;4.27;3.63;;;16.60;91.40;;;;;;5014159;28;20488;-55
2022/06/17 05:06:54;;;;;;;3.83;3.43;;;16.70;92.00;;;;;;5013844;28;20475;-55
2022/06/17 05:09:24;;;;;;;10.33;5.20;;;17.00;90.50;;;;;;5026754;28;20535;-55
2022/06/17 05:11:54;;;;;;;3.70;3.20;;;17.10;90.00;;;;;;5005949;28;20483;-55
2022/06/17 05:14:27;;;;;;;4.90;4.40;;;17.30;89.80;;;;;;5009002;28;20473;-55
2022/06/17 05:16:57;;;;;;;6.27;4.20;;;17.30;89.70;;;;;;5008687;28;20542;-55
2022/06/17 05:19:24;;;;;;;4.60;4.20;;;17.40;89.50;;;;;;5014586;28;20483;-55
2022/06/17 05:21:51;;;;;;;7.53;4.13;;;17.50;88.70;;;;;;5012132;28;20491;-54
2022/06/17 05:24:18;;;;;;;5.20;4.10;;;17.60;88.30;;;;;;5013263;28;20996;-54
2022/06/17 05:26:44;;;;;;;5.40;4.90;;;17.70;88.80;;;;;;5011559;28;20495;-54
2022/06/17 05:29:11;;;;;;;4.60;4.20;;;17.70;88.70;;;;;;5016383;28;20489;-55
2022/06/17 05:31:39;;;;;;;6.73;4.73;;;17.70;89.70;;;;;;5018086;28;21049;-55
2022/06/17 05:34:07;;;;;;;7.73;4.37;;;17.90;87.90;;;;;;5015134;28;20487;-55
2022/06/17 05:36:34;;;;;;;10.00;4.47;;;17.90;87.70;;;;;;5010783;28;20476;-55
2022/06/17 05:39:00;;;;;;;4.73;3.20;;;18.00;87.70;;;;;;5009974;28;20477;-55
2022/06/17 05:41:27;;;;;;;4.97;4.30;;;18.10;87.50;;;;;;5021918;28;20489;-55
2022/06/17 05:43:54;;;;;;;6.10;3.40;;;18.20;87.80;;;;;;5017664;28;20484;-55
2022/06/17 05:46:21;;;;;;;4.00;3.60;;;18.30;88.00;;;;;;5018087;28;21009;-55
2022/06/17 05:48:48;;;;;;;4.83;4.43;;;18.60;87.80;;;;;;5016241;28;20572;-54
2022/06/17 05:51:16;;;;;;;10.90;4.17;;;18.60;88.20;;;;;;5015015;28;20492;-55
2022/06/17 05:53:42;;;;;;;4.37;4.07;;;18.80;87.40;;;;;;5012825;28;20897;-54
2022/06/17 05:56:09;;;;;;;3.77;3.33;;;19.00;87.90;;;;;;5017855;28;20483;-54
2022/06/17 05:58:36;;;;;;;4.97;2.83;;;19.20;86.90;;;;;;5017602;28;20476;-55
2022/06/17 06:01:03;;;;;;;5.73;3.20;;;19.40;86.40;;;;;;5000007;28;20468;-54
2022/06/17 06:03:30;;;;;;;6.70;3.93;;;19.40;86.70;;;;;;5018845;28;20476;-54
2022/06/17 06:05:57;;;;;;;2.67;2.47;;;19.50;86.40;;;;;;5019541;28;20489;-54
2022/06/17 06:08:25;;;;;;;4.10;3.60;;;19.60;84.50;;;;;;5017175;28;20500;-54
2022/06/17 06:10:52;;;;;;;5.50;3.73;;;19.70;84.80;;;;;;5015360;28;20493;-54
2022/06/17 06:13:22;;;;;;;3.30;3.00;;;19.80;84.80;;;;;;5018998;28;20503;-54
2022/06/17 06:15:51;;;;;;;5.30;3.63;;;19.90;84.90;;;;;;5019325;28;20481;-54
2022/06/17 06:18:21;;;;;;;5.43;3.80;;;20.10;84.30;;;;;;5017303;28;20883;-54
2022/06/17 06:20:48;;;;;;;7.40;3.47;;;20.10;85.70;;;;;;5021186;28;20485;-54
2022/06/17 06:23:15;;;;;;;3.43;3.07;;;20.20;84.30;;;;;;5023754;28;20476;-54
2022/06/17 06:25:43;;;;;;;4.80;3.60;;;20.40;82.80;;;;;;5022883;28;20483;-54
2022/06/17 06:28:11;;;;;;;4.50;3.67;;;20.50;83.20;;;;;;5025172;28;20501;-54
2022/06/17 06:30:38;;;;;;;4.50;4.10;;;20.50;82.80;;;;;;5011896;28;20476;-54
2022/06/17 06:33:05;;;;;;;11.07;3.37;;;20.60;82.20;;;;;;5023870;28;20786;-54
2022/06/17 06:35:34;;;;;;;3.77;3.10;;;20.60;82.10;;;;;;5012575;28;20490;-54
2022/06/17 06:38:02;;;;;;;4.00;2.83;;;20.70;81.80;;;;;;5023529;28;20494;-54
2022/06/17 06:40:30;;;;;;;3.80;3.50;;;20.80;81.30;;;;;;5022150;28;20483;-54
2022/06/17 06:42:59;;;;;;;4.10;3.17;;;21.00;82.20;;;;;;5022442;28;20491;-54
2022/06/17 06:45:28;;;;;;;4.20;3.27;;;21.00;81.80;;;;;;5022144;28;22076;-54
2022/06/17 06:47:57;;;;;;;14.10;3.77;;;21.20;81.00;;;;;;5016589;28;20497;-54
2022/06/17 06:50:28;;;;;;;3.90;2.73;;;21.40;81.80;;;;;;5028458;28;20764;-54
2022/06/17 06:52:55;;;;;;;2.77;2.57;;;21.40;82.40;;;;;;5020078;28;20482;-53
2022/06/17 06:55:22;;;;;;;3.30;3.00;;;21.90;81.50;;;;;;5020862;28;20554;-54
2022/06/17 06:57:51;;;;;;;4.23;3.10;;;22.10;81.10;;;;;;5024570;28;21005;-54
2022/06/17 07:00:22;;;;;;;15.43;3.30;;;;;;;;;;5024434;28;20470;-54
2022/06/17 07:02:49;;;;;;;2.63;2.37;;;22.60;79.30;;;;;;5011088;28;20487;-54
2022/06/17 07:05:17;;;;;;;4.33;3.17;;;22.70;79.00;;;;;;5022594;28;20495;-54
2022/06/17 07:07:44;;;;;;;3.20;2.90;;;22.90;78.60;;;;;;5014764;28;20495;-55
2022/06/17 07:10:16;;;;;;;2.63;2.13;;;23.00;78.10;;;;;;5032864;28;20497;-54
2022/06/17 07:12:42;;;;;;;2.80;2.60;;;23.10;76.60;;;;;;5021663;28;20477;-55
2022/06/17 07:15:11;;;;;;;4.73;2.87;;;23.10;75.40;;;;;;5021495;28;20496;-54
2022/06/17 07:17:39;;;;;;;2.80;2.30;;;23.20;75.60;;;;;;5027650;28;20486;-54
2022/06/17 07:20:08;;;;;;;6.73;2.00;;;23.10;75.20;;;;;;5017568;28;20483;-54
2022/06/17 07:22:38;;;;;;;3.77;2.23;;;23.40;76.30;;;;;;5025825;28;20480;-54
2022/06/17 07:25:05;;;;;;;4.67;2.67;;;23.30;76.90;;;;;;5024629;28;20521;-55
2022/06/17 07:27:32;;;;;;;3.33;2.90;;;23.50;74.90;;;;;;5018315;28;20469;-56
2022/06/17 07:29:59;;;;;;;4.50;2.30;;;23.80;74.50;;;;;;5013746;28;20491;-54
2022/06/17 07:32:26;;;;;;;3.10;2.77;;;23.90;72.80;;;;;;5020818;28;20484;-54
2022/06/17 07:34:54;;;;;;;2.30;1.97;;;24.00;73.30;;;;;;5012398;28;20992;-54
2022/06/17 07:40:06;;;;;;;3.80;2.33;;;24.00;72.70;;;;;;5010748;28;21438;-54
2022/06/17 07:42:38;;;;;;;2.67;2.40;;;24.00;72.40;;;;;;5017967;28;20635;-54
2022/06/17 07:45:08;;;;;;;4.10;3.10;;;24.00;73.10;;;;;;5023537;28;20820;-53
2022/06/17 07:47:35;;;;;;;4.10;2.10;;;24.10;73.30;;;;;;5014711;28;20472;-54
2022/06/17 07:50:05;;;;;;;5.03;2.33;;;24.20;74.90;;;;;;5023941;28;20886;-54
2022/06/17 07:52:31;;;;;;;2.93;2.37;;;24.70;74.70;;;;;;5022768;28;21702;-54
2022/06/17 07:54:58;;;;;;;4.23;2.27;;;24.80;73.70;;;;;;5020258;28;20476;-54
2022/06/17 07:57:25;;;;;;;3.03;2.30;;;25.10;72.00;;;;;;5026610;28;20488;-54
2022/06/17 07:59:52;;;;;;;2.80;2.10;;;25.30;70.80;;;;;;5021382;28;20492;-54
2022/06/17 08:02:18;;;;;;;3.47;2.30;;;25.30;73.00;;;;;;5022725;28;20498;-55
2022/06/17 08:04:45;;;;;;;3.93;2.07;;;25.50;72.80;;;;;;5024531;28;20493;-55
2022/06/17 08:07:13;;;;;;;3.50;2.90;;;25.90;72.30;;;;;;5020965;28;20553;-55
2022/06/17 08:09:40;;;;;;;3.17;2.17;;;26.20;68.90;;;;;;5017601;28;20496;-56
2022/06/17 08:12:11;;;;;;;2.50;2.10;;;26.60;67.40;;;;;;5021303;28;20927;-54
2022/06/17 08:14:43;;;;;;;3.70;1.77;;;26.60;68.60;;;;;;5017930;28;20468;-55
2022/06/17 08:17:12;;;;;;;2.67;1.73;;;26.70;63.60;;;;;;5017837;28;20487;-54
2022/06/17 08:19:39;;;;;;;2.20;2.00;;;26.90;66.20;;;;;;5022503;28;20575;-54
2022/06/17 08:22:06;;;;;;;2.20;1.70;;;27.10;65.00;;;;;;5021128;28;20484;-55
2022/06/17 08:24:34;;;;;;;4.13;2.10;;;27.20;62.90;;;;;;5017010;28;20480;-55
2022/06/17 08:27:01;;;;;;;3.60;1.87;;;27.00;63.10;;;;;;5012553;28;20484;-56
2022/06/17 08:29:28;;;;;;;2.30;2.10;;;27.10;66.50;;;;;;5017932;28;21001;-55
2022/06/17 08:32:44;;;;;;;4.63;2.10;;;27.10;60.90;;;;;;5019997;28;20551;-55
2022/06/17 08:34:42;;;;;;;2.63;2.43;;;27.30;65.40;;;;;;5017319;28;20481;-55
2022/06/17 08:37:10;;;;;;;3.70;2.10;;;27.60;64.00;;;;;;5018321;28;20488;-55
2022/06/17 08:39:38;;;;;;;3.40;2.63;;;27.80;61.90;;;;;;5019457;28;20489;-55
2022/06/17 08:42:19;;;;;;;2.20;1.93;;;27.70;62.40;;;;;;5017712;28;20496;-55
2022/06/17 08:44:52;;;;;;;3.70;1.93;;;27.80;64.20;;;;;;5007761;28;20591;-55
2022/06/17 08:47:33;;;;;;;2.20;1.90;;;27.70;58.20;;;;;;5020957;28;20480;-56
2022/06/17 08:50:22;;;;;;;2.23;2.03;;;27.70;61.60;;;;;;5020522;28;20524;-56
2022/06/17 08:53:30;;;;;;;2.60;1.73;;;27.70;61.60;;;;;;4999264;28;20686;-55
2022/06/17 08:56:05;;;;;;;3.93;2.03;;;27.40;58.40;;;;;;5005448;28;20485;-55
2022/06/17 08:58:41;;;;;;;2.33;2.13;;;27.50;59.40;;;;;;5016204;28;20480;-55
2022/06/17 09:01:20;;;;;;;4.20;1.90;;;27.90;64.70;;;;;;5016405;28;20479;-56
2022/06/17 09:04:00;;;;;;;3.27;1.93;;;27.90;58.00;;;;;;5015688;28;20487;-56
2022/06/17 09:06:39;;;;;;;2.50;2.00;;;28.20;60.80;;;;;;5015166;28;20500;-56
2022/06/17 09:09:21;;;;;;;2.40;2.03;;;28.00;56.60;;;;;;5018851;28;20895;-56
2022/06/17 09:11:57;;;;;;;3.30;2.30;;;28.10;59.30;;;;;;5021955;28;20480;-55
2022/06/17 09:14:37;;;;;;;2.30;1.50;;;28.10;61.70;;;;;;5017952;28;20491;-55
2022/06/17 09:17:13;;;;;;;4.20;1.53;;;28.70;61.80;;;;;;5019340;28;20464;-56
2022/06/17 09:19:45;;;;;;;2.60;1.40;;;28.90;61.70;;;;;;5006633;28;20503;-56
2022/06/17 09:22:16;;;;;;;3.43;1.73;;;29.30;57.80;;;;;;5019297;28;20923;-56
2022/06/17 09:24:45;;;;;;;3.10;1.33;;;29.40;58.70;;;;;;5011546;28;20476;-56
2022/06/17 09:27:18;;;;;;;2.90;1.47;;;29.60;57.00;;;;;;5015342;28;20503;-56
2022/06/17 09:29:50;;;;;;;5.30;1.60;;;30.00;57.10;;;;;;5016005;28;20857;-56
2022/06/17 09:32:21;;;;;;;2.77;1.80;;;30.20;57.70;;;;;;5020269;28;21045;-56
2022/06/17 09:34:56;;;;;;;2.73;2.00;;;30.40;57.20;;;;;;5011288;28;20481;-56
2022/06/17 09:37:29;;;;;;;2.10;1.57;;;30.70;59.80;;;;;;5013582;28;20974;-56
2022/06/17 09:39:58;;;;;;;3.83;1.60;;;;;;;;;;5005667;28;20466;-56
2022/06/17 09:42:34;;;;;;;1.80;1.07;;;31.00;57.20;;;;;;5009761;28;20447;-56
2022/06/17 09:45:09;;;;;;;2.40;1.67;;;31.10;57.40;;;;;;5005475;28;20560;-55
2022/06/17 09:47:39;;;;;;;3.37;1.30;;;31.30;57.00;;;;;;5014624;28;20505;-55
2022/06/17 09:50:12;;;;;;;2.10;1.50;;;31.30;55.80;;;;;;5012417;28;21013;-56
2022/06/17 09:52:42;;;;;;;2.10;1.43;;;31.20;55.70;;;;;;5019319;28;20491;-55
2022/06/17 09:55:16;;;;;;;2.03;1.10;;;30.90;52.70;;;;;;5018193;28;20466;-56
2022/06/17 09:57:48;;;;;;;2.00;1.47;;;30.70;53.70;;;;;;5017206;28;20481;-56
2022/06/17 10:00:18;;;;;;;2.37;1.40;;;30.80;55.10;;;;;;5020633;28;20470;-55
2022/06/17 10:02:49;;;;;;;2.17;1.27;;;30.80;54.90;;;;;;5017573;28;20484;-55
2022/06/17 10:05:26;;;;;;;7.60;1.43;;;31.20;54.30;;;;;;5019247;28;20488;-55
2022/06/17 10:08:07;;;;;;;3.80;1.27;;;31.20;54.80;;;;;;5010239;28;20443;-55
2022/06/17 10:10:43;;;;;;;4.83;1.43;;;31.50;54.90;;;;;;5021923;28;20472;-54
2022/06/17 10:13:24;;;;;;;1.90;1.20;;;31.70;53.30;;;;;;5018831;28;20488;-55
2022/06/17 10:18:56;;;;;;;2.27;1.40;;;31.10;55.80;;;;;;5019287;28;20590;-55
2022/06/17 10:21:36;;;;;;;2.63;1.57;;;31.20;55.30;;;;;;5014712;28;20891;-55
2022/06/17 10:24:11;;;;;;;2.17;1.70;;;31.30;52.50;;;;;;5023970;28;20479;-55
2022/06/17 10:26:51;;;;;;;2.30;1.80;;;31.60;54.30;;;;;;5019870;28;20879;-55
2022/06/17 10:29:49;;;;;;;2.33;1.50;;;31.60;51.30;;;;;;5020462;28;20537;-55
2022/06/17 10:32:15;;;;;;;3.90;1.20;;;31.70;55.60;;;;;;5020008;28;20484;-56
2022/06/17 10:34:47;;;;;;;1.70;1.00;;;31.90;53.70;;;;;;5019418;28;20455;-56
2022/06/17 10:37:14;;;;;;;2.23;1.20;;;32.00;53.10;;;;;;5020003;28;20459;-55
2022/06/17 10:39:43;;;;;;;2.10;1.23;;;32.20;54.80;;;;;;5022143;28;20491;-55
2022/06/17 10:42:15;;;;;;;2.00;1.60;;;32.00;50.90;;;;;;5017703;28;20525;-54
2022/06/17 10:44:45;;;;;;;5.87;1.40;;;31.50;49.60;;;;;;5025872;28;21095;-53
2022/06/17 10:47:22;;;;;;;4.07;1.37;;;31.30;50.60;;;;;;5021239;28;20492;-55
2022/06/17 10:49:54;;;;;;;2.53;1.33;;;31.30;51.70;;;;;;5016203;28;20788;-54
2022/06/17 10:52:30;;;;;;;2.60;1.70;;;31.50;55.80;;;;;;5013262;28;20524;-54
2022/06/17 10:54:59;;;;;;;3.40;1.40;;;32.10;54.20;;;;;;5027699;28;20482;-54
2022/06/17 10:57:28;;;;;;;1.90;1.30;;;32.10;55.40;;;;;;5020616;28;20470;-55
2022/06/17 10:59:57;;;;;;;5.20;1.40;;;32.50;53.30;;;;;;5020352;28;20512;-55
2022/06/17 11:02:28;;;;;;;1.90;1.20;;;32.40;51.40;;;;;;5017345;28;20487;-56
2022/06/17 11:04:56;;;;;;;1.97;1.10;;;32.30;51.20;;;;;;5022119;28;20481;-54
2022/06/17 11:07:27;;;;;;;2.27;1.40;;;32.30;53.10;;;;;;5020901;28;20479;-54
2022/06/17 11:09:57;;;;;;;2.40;1.03;;;31.60;49.50;;;;;;5015154;28;20508;-57
2022/06/17 11:12:33;;;;;;;1.80;1.10;;;31.20;50.10;;;;;;5020268;28;20492;-54
2022/06/17 11:15:05;;;;;;;2.10;1.30;;;31.20;51.70;;;;;;5018673;28;20458;-54
2022/06/17 11:17:35;;;;;;;3.17;1.20;;;31.40;54.60;;;;;;5017370;28;20844;-54
2022/06/17 11:20:06;;;;;;;2.67;1.20;;;31.80;52.10;;;;;;5020853;28;20462;-53
2022/06/17 11:22:38;;;;;;;1.70;0.90;;;32.10;54.20;;;;;;5022422;28;21012;-54
2022/06/17 11:25:09;;;;;;;1.90;1.40;;;32.10;47.90;;;;;;5018960;28;20493;-54
2022/06/17 11:27:39;;;;;;;2.03;1.20;;;32.20;50.50;;;;;;5017069;28;20492;-53
2022/06/17 11:30:30;;;;;;;1.80;1.10;;;32.30;49.80;;;;;;5016542;28;20496;-53
2022/06/17 11:32:59;;;;;;;2.37;1.47;;;32.50;51.30;;;;;;4995601;28;20472;-54
2022/06/17 11:35:29;;;;;;;3.80;1.10;;;32.70;52.30;;;;;;5019827;28;21001;-54
2022/06/17 11:37:58;;;;;;;5.60;1.10;;;32.60;46.70;;;;;;5020606;28;20466;-54
2022/06/17 11:40:28;;;;;;;1.70;1.20;;;32.20;46.30;;;;;;5022550;28;20851;-53
2022/06/17 11:42:57;;;;;;;1.90;1.10;;;32.00;47.80;;;;;;5022545;28;20499;-55
2022/06/17 11:45:36;;;;;;;1.97;1.03;;;31.90;50.80;;;;;;5019306;28;20465;-54
2022/06/17 11:48:10;;;;;;;1.83;1.13;;;31.70;50.50;;;;;;5018000;28;20994;-54
2022/06/17 11:50:40;;;;;;;3.90;1.30;;;31.50;50.40;;;;;;5010173;28;20767;-51
2022/06/17 11:53:11;;;;;;;1.70;1.07;;;31.60;50.70;;;;;;5007113;28;20880;-53
2022/06/17 11:55:44;;;;;;;4.43;1.47;;;32.00;50.40;;;;;;5012966;28;20455;-59
2022/06/17 11:58:12;;;;;;;2.33;1.20;;;32.00;51.90;;;;;;5018896;28;20451;-53
2022/06/17 12:00:48;;;;;;;1.70;1.20;;;32.30;51.50;;;;;;5013690;28;20557;-54
2022/06/17 12:03:18;;;;;;;1.70;1.00;;;32.40;51.90;;;;;;5019453;28;20492;-52
2022/06/17 12:05:56;;;;;;;2.53;0.90;;;32.70;49.30;;;;;;5017681;28;20470;-54
2022/06/17 12:08:27;;;;;;;2.97;1.20;;;32.10;47.20;;;;;;5015583;28;20472;-53
2022/06/17 12:10:56;;;;;;;1.70;1.27;;;31.80;47.10;;;;;;5017108;28;20765;-55
2022/06/17 12:13:29;;;;;;;2.40;1.03;;;31.90;49.20;;;;;;5014516;28;20484;-53
2022/06/17 12:16:01;;;;;;;1.70;1.10;;;32.00;47.80;;;;;;5018375;28;20932;-53
2022/06/17 12:18:32;;;;;;;1.70;1.00;;;32.00;48.80;;;;;;5016183;28;20455;-55
2022/06/17 12:21:13;;;;;;;1.70;1.07;;;32.00;47.90;;;;;;5018244;28;20860;-53
2022/06/17 12:23:44;;;;;;;2.00;1.63;;;32.10;46.00;;;;;;5016161;28;20491;-53
2022/06/17 12:26:27;;;;;;;2.77;1.33;;;32.20;48.40;;;;;;5013595;28;20455;-53
2022/06/17 12:29:02;;;;;;;1.90;1.20;;;32.40;52.10;;;;;;5015150;28;20467;-53
2022/06/17 12:31:42;;;;;;;1.83;1.40;;;32.50;47.90;;;;;;5019434;28;20481;-53
2022/06/17 12:34:20;;;;;;;4.47;0.93;;;32.80;52.40;;;;;;5005480;28;20443;-53
2022/06/17 12:36:51;;;;;;;2.77;1.43;;;33.00;50.50;;;;;;5016945;28;20466;-53
2022/06/17 12:39:25;;;;;;;2.20;1.07;;;33.20;49.90;;;;;;5008272;28;20578;-53
2022/06/17 12:42:00;;;;;;;3.57;1.60;;;32.90;49.50;;;;;;5008456;28;20463;-54
2022/06/17 12:44:39;;;;;;;1.70;1.10;;;32.70;48.60;;;;;;5010280;28;21325;-54
2022/06/17 12:47:14;;;;;;;3.43;1.30;;;32.50;50.80;;;;;;5014404;28;20962;-55
2022/06/17 12:55:39;;;;;;;2.87;1.30;;;32.60;48.80;;;;;;5020310;28;20518;-53
2022/06/17 12:58:15;;;;;;;2.27;1.30;;;32.60;51.00;;;;;;5019998;28;20470;-53
2022/06/17 13:00:45;;;;;;;4.10;1.53;;;32.50;47.50;;;;;;5011027;28;21054;-52
2022/06/17 13:03:41;;;;;;;1.80;1.20;;;32.50;48.40;;;;;;5016880;28;20460;-52
2022/06/17 13:06:17;;;;;;;2.20;1.10;;;32.70;48.70;;;;;;5017103;28;20455;-52
2022/06/17 13:08:54;;;;;;;2.30;1.63;;;32.90;49.20;;;;;;5008919;28;20968;-53
2022/06/17 13:11:26;;;;;;;2.37;1.23;;;32.80;47.40;;;;;;5015448;28;20458;-52
2022/06/17 13:14:07;;;;;;;1.83;1.10;;;32.90;50.30;;;;;;5004837;28;20450;-52
2022/06/17 13:16:37;;;;;;;3.73;1.50;;;33.00;48.80;;;;;;5020235;28;20446;-53
2022/06/17 13:19:11;;;;;;;2.07;1.30;;;32.70;48.10;;;;;;5006936;28;20488;-53
2022/06/17 13:21:47;;;;;;;1.90;1.10;;;32.70;49.90;;;;;;5008351;28;20499;-57